Terminal Aerodrome Forecast
Issued by NWS

Current Version | Previous Version | Text Only | Print | Product List | Glossary Off
Versions: 1 2 3 4 5 6 7 8 9 10 11 12 13 14 15 16 17 18 19 20 21 22 23 24

000
FTUS41 KRLX 182058 AAA
TAFCKB
TAF AMD
KCKB 182058Z 1821/1918 09009G18KT P6SM SHRA OVC040
      TEMPO 1821/1823 4SM SHRA OVC025
     FM190000 09010KT P6SM OVC040
      TEMPO 1900/1903 4SM SHRA OVC025
     FM190300 10009KT P6SM SHRA OVC045
     FM191200 12004KT P6SM BKN060
     FM191600 18008KT P6SM BKN045=

USA.gov is the U.S. government's official web portal to all federal, state and local government web resources and services.